createdAt,value
2017-12-24T00:00:34.129Z,29.50
2017-12-24T00:03:14.654Z,32.65
2017-12-24T00:05:55.659Z,27.55
2017-12-24T00:08:37.344Z,23.95
2017-12-24T00:11:18.945Z,26.75
2017-12-24T00:14:00.111Z,33.45
2017-12-24T00:16:39.323Z,26.15
2017-12-24T00:19:21.036Z,31.20
2017-12-24T00:22:02.099Z,28.38
2017-12-24T00:24:42.561Z,27.90
2017-12-24T00:27:23.850Z,27.95
2017-12-24T00:30:05.538Z,26.50
2017-12-24T00:32:47.065Z,25.05
2017-12-24T00:35:28.163Z,26.80
2017-12-24T00:38:09.022Z,28.45
2017-12-24T00:40:50.119Z,27.58
2017-12-24T00:43:31.603Z,28.65
2017-12-24T00:46:13.292Z,24.98
2017-12-24T00:48:54.874Z,27.50
2017-12-24T00:51:35.732Z,24.92
2017-12-24T00:54:16.766Z,23.70
2017-12-24T00:56:57.562Z,25.75
2017-12-24T01:02:21.790Z,21.15
2017-12-24T01:05:02.120Z,23.90
2017-12-24T01:07:43.728Z,27.02
2017-12-24T01:10:25.510Z,28.08
2017-12-24T01:13:06.517Z,26.48
2017-12-24T01:15:48.035Z,23.50
2017-12-24T01:18:29.328Z,30.05
2017-12-24T01:20:57.290Z,20.25
2017-12-24T01:23:27.363Z,23.33
2017-12-24T01:25:55.356Z,24.42
2017-12-24T01:28:24.124Z,19.35
2017-12-24T01:30:52.123Z,24.12
2017-12-24T01:33:20.132Z,20.65
2017-12-24T01:35:48.146Z,19.58
2017-12-24T01:38:16.967Z,19.27
2017-12-24T01:40:44.954Z,22.13
2017-12-24T01:43:12.983Z,18.45
2017-12-24T01:45:41.754Z,16.30
2017-12-24T01:48:09.758Z,19.45
2017-12-24T01:50:37.739Z,21.45
2017-12-24T01:53:05.730Z,25.17
2017-12-24T01:55:33.711Z,17.12
2017-12-24T01:58:01.693Z,16.12
2017-12-24T02:00:29.675Z,16.20
2017-12-24T02:02:58.403Z,17.85
2017-12-24T02:05:26.407Z,14.63
2017-12-24T02:07:54.382Z,15.27
2017-12-24T02:10:22.465Z,18.00
2017-12-24T02:12:50.491Z,22.52
2017-12-24T02:15:18.459Z,14.68
2017-12-24T02:17:46.434Z,17.27
2017-12-24T02:20:14.486Z,18.00
2017-12-24T02:22:42.539Z,17.42
2017-12-24T02:25:11.310Z,16.00
2017-12-24T02:27:39.309Z,17.80
2017-12-24T02:30:07.280Z,17.27
2017-12-24T02:32:35.279Z,13.02
2017-12-24T02:35:03.278Z,14.77
2017-12-24T02:37:31.271Z,14.93
2017-12-24T02:40:00.021Z,13.20
2017-12-24T02:42:28.056Z,12.80
2017-12-24T02:44:56.020Z,13.77
2017-12-24T02:47:23.970Z,13.75
2017-12-24T02:49:52.734Z,12.13
2017-12-24T02:52:20.698Z,12.82
2017-12-24T02:54:48.673Z,17.08
2017-12-24T02:57:16.698Z,15.40
2017-12-24T02:59:44.667Z,14.00
2017-12-24T03:02:14.687Z,13.62
2017-12-24T03:04:42.673Z,15.45
2017-12-24T03:07:10.631Z,12.48
2017-12-24T03:09:38.613Z,15.10
2017-12-24T03:12:06.659Z,12.18
2017-12-24T03:14:34.623Z,13.20
2017-12-24T03:17:02.619Z,10.00
2017-12-24T03:19:30.639Z,14.00
2017-12-24T03:21:59.406Z,10.73
2017-12-24T03:24:27.391Z,10.85
2017-12-24T03:26:56.146Z,12.70
2017-12-24T03:29:24.136Z,13.00
2017-12-24T03:31:52.134Z,11.20
2017-12-24T03:34:20.894Z,13.18
2017-12-24T03:36:48.893Z,11.10
2017-12-24T03:39:17.626Z,11.35
2017-12-24T03:41:45.618Z,12.50
2017-12-24T03:44:13.590Z,10.65
2017-12-24T03:46:41.563Z,12.55
2017-12-24T03:49:09.581Z,10.02
2017-12-24T03:51:37.602Z,10.13
2017-12-24T03:54:05.582Z,10.68
2017-12-24T03:56:34.324Z,12.27
2017-12-24T03:59:02.347Z,11.35
2017-12-24T04:01:31.087Z,12.57
2017-12-24T04:03:59.068Z,13.57
2017-12-24T04:06:27.044Z,12.37
2017-12-24T04:08:55.058Z,14.65
2017-12-24T04:11:23.064Z,13.75
2017-12-24T04:13:51.036Z,12.00
2017-12-24T04:16:19.000Z,11.15
2017-12-24T04:18:46.971Z,13.55
2017-12-24T04:21:14.968Z,10.57
2017-12-24T04:23:42.905Z,13.35
2017-12-24T04:26:10.870Z,12.95
2017-12-24T04:28:38.850Z,12.27
2017-12-24T04:31:06.854Z,11.80
2017-12-24T04:33:34.865Z,11.20
2017-12-24T04:36:02.841Z,12.80
2017-12-24T04:38:30.857Z,14.43
2017-12-24T04:40:58.807Z,10.75
2017-12-24T04:43:26.803Z,11.63
2017-12-24T04:45:54.800Z,9.07
2017-12-24T04:48:23.604Z,11.30
2017-12-24T04:50:51.568Z,11.18
2017-12-24T04:53:19.559Z,13.88
2017-12-24T04:55:47.562Z,10.77
2017-12-24T04:58:15.522Z,13.43
2017-12-24T05:00:43.500Z,13.88
2017-12-24T05:03:11.473Z,11.23
2017-12-24T05:05:39.501Z,10.10
2017-12-24T05:08:07.490Z,13.30
2017-12-24T05:10:35.518Z,15.43
2017-12-24T05:13:03.500Z,11.63
2017-12-24T05:15:31.510Z,10.27
2017-12-24T05:17:59.510Z,10.88
2017-12-24T05:20:28.232Z,13.25
2017-12-24T05:22:56.212Z,14.13
2017-12-24T05:25:24.198Z,10.27
2017-12-24T05:27:52.186Z,10.10
2017-12-24T05:30:20.172Z,11.00
2017-12-24T05:32:48.942Z,11.00
2017-12-24T05:35:16.945Z,8.73
2017-12-24T05:37:45.683Z,10.48
2017-12-24T05:40:13.678Z,11.68
2017-12-24T05:42:41.658Z,7.65
2017-12-24T05:45:10.402Z,9.05
2017-12-24T05:47:38.411Z,7.70
2017-12-24T05:50:06.403Z,9.13
2017-12-24T05:52:35.149Z,8.30
2017-12-24T05:55:03.072Z,9.13
2017-12-24T05:57:31.072Z,9.23
2017-12-24T05:59:59.058Z,10.30
2017-12-24T06:02:27.111Z,11.27
2017-12-24T06:04:55.107Z,8.52
2017-12-24T06:07:23.099Z,7.40
2017-12-24T06:09:51.839Z,8.40
2017-12-24T06:12:19.878Z,10.43
2017-12-24T06:14:47.903Z,10.52
2017-12-24T06:17:15.908Z,7.85
2017-12-24T06:19:44.688Z,8.55
2017-12-24T06:22:13.454Z,11.55
2017-12-24T06:24:41.458Z,9.95
2017-12-24T06:27:09.455Z,10.27
2017-12-24T06:29:37.439Z,8.05
2017-12-24T06:32:05.435Z,6.10
2017-12-24T06:34:33.447Z,7.22
2017-12-24T06:37:01.449Z,9.88
2017-12-24T06:39:29.439Z,6.47
2017-12-24T06:41:57.442Z,6.97
2017-12-24T06:44:26.215Z,11.80
2017-12-24T06:46:54.943Z,6.85
2017-12-24T06:49:22.926Z,8.00
2017-12-24T06:51:50.885Z,6.97
2017-12-24T06:54:18.861Z,14.48
2017-12-24T06:56:46.827Z,6.90
2017-12-24T06:59:14.801Z,93.57
2017-12-24T07:01:42.778Z,27.73
2017-12-24T07:04:10.746Z,17.75
2017-12-24T07:06:38.735Z,11.43
2017-12-24T07:09:06.721Z,10.98
2017-12-24T07:11:34.704Z,9.25
2017-12-24T07:14:03.463Z,8.30
2017-12-24T07:16:31.456Z,7.22
2017-12-24T07:19:00.199Z,7.15
2017-12-24T07:21:28.164Z,7.20
2017-12-24T07:23:56.132Z,6.15
2017-12-24T07:26:24.064Z,8.55
2017-12-24T07:28:52.870Z,10.27
2017-12-24T07:31:20.895Z,8.00
2017-12-24T07:33:48.869Z,7.82
2017-12-24T07:36:16.846Z,5.70
2017-12-24T07:38:44.831Z,8.55
2017-12-24T07:41:13.597Z,9.90
2017-12-24T07:43:41.582Z,9.70
2017-12-24T07:46:10.333Z,7.60
2017-12-24T07:48:38.300Z,5.93
2017-12-24T07:51:06.340Z,7.72
2017-12-24T07:53:34.326Z,8.57
2017-12-24T07:56:02.291Z,7.70
2017-12-24T07:58:30.255Z,8.48
2017-12-24T08:00:58.243Z,8.55
2017-12-24T08:03:26.250Z,8.43
2017-12-24T08:05:55.001Z,5.62
2017-12-24T08:08:23.047Z,7.45
2017-12-24T08:10:51.072Z,9.30
2017-12-24T08:13:19.063Z,7.87
2017-12-24T08:15:47.810Z,7.47
2017-12-24T08:18:15.811Z,9.65
2017-12-24T08:20:44.574Z,5.78
2017-12-24T08:23:12.591Z,7.20
2017-12-24T08:25:40.571Z,7.68
2017-12-24T08:28:08.543Z,6.80
2017-12-24T08:30:36.515Z,6.85
2017-12-24T08:33:04.523Z,9.23
2017-12-24T08:35:32.505Z,8.23
2017-12-24T08:38:00.499Z,10.35
2017-12-24T08:40:28.919Z,12.52
2017-12-24T08:42:58.786Z,6.78
2017-12-24T08:45:26.852Z,6.57
2017-12-24T08:47:55.650Z,7.95
2017-12-24T08:50:23.659Z,8.65
2017-12-24T08:52:51.658Z,11.93
2017-12-24T08:55:19.638Z,11.27
2017-12-24T08:57:47.632Z,12.80
2017-12-24T09:00:16.426Z,16.90
2017-12-24T09:02:44.403Z,12.03
2017-12-24T09:05:12.397Z,12.80
2017-12-24T09:07:40.371Z,7.73
2017-12-24T09:10:08.369Z,10.10
2017-12-24T09:12:36.370Z,14.53
2017-12-24T09:15:05.126Z,11.67
2017-12-24T09:17:33.118Z,11.97
2017-12-24T09:20:01.865Z,13.27
2017-12-24T09:22:29.834Z,9.20
2017-12-24T09:24:57.835Z,10.07
2017-12-24T09:27:25.836Z,10.00
2017-12-24T09:29:54.255Z,9.43
2017-12-24T09:32:22.519Z,13.07
2017-12-24T09:34:50.543Z,10.50
2017-12-24T09:37:19.353Z,10.33
2017-12-24T09:39:47.354Z,11.00
2017-12-24T09:42:15.371Z,10.40
2017-12-24T09:44:44.178Z,10.90
2017-12-24T09:47:12.144Z,10.97
2017-12-24T09:49:40.173Z,10.50
2017-12-24T09:52:08.209Z,12.40
2017-12-24T09:54:36.186Z,12.33
2017-12-24T09:57:04.191Z,17.00
2017-12-24T09:59:32.839Z,14.87
2017-12-24T10:02:00.933Z,11.03
2017-12-24T10:04:28.916Z,14.77
2017-12-24T10:06:57.041Z,13.60
2017-12-24T10:09:25.007Z,11.30
2017-12-24T10:11:53.008Z,14.90
2017-12-24T10:14:21.034Z,19.90
2017-12-24T10:16:49.035Z,17.00
2017-12-24T10:19:17.012Z,11.67
2017-12-24T10:21:45.852Z,15.53
2017-12-24T10:24:14.642Z,12.20
2017-12-24T10:26:43.404Z,14.70
2017-12-24T10:29:11.389Z,18.20
2017-12-24T10:31:40.193Z,16.53
2017-12-24T10:34:08.934Z,16.43
2017-12-24T10:36:36.895Z,13.47
2017-12-24T10:39:05.012Z,17.80
2017-12-24T10:41:33.750Z,19.73
2017-12-24T10:44:03.509Z,18.40
2017-12-24T10:46:32.258Z,20.07
2017-12-24T10:49:00.231Z,17.57
2017-12-24T10:51:28.267Z,24.63
2017-12-24T10:53:56.259Z,18.93
2017-12-24T10:56:24.264Z,18.20
2017-12-24T10:58:52.234Z,22.60
2017-12-24T11:01:20.245Z,21.80
2017-12-24T11:03:48.284Z,24.63
2017-12-24T11:06:16.294Z,20.57
2017-12-24T11:08:44.279Z,19.93
2017-12-24T11:11:12.267Z,24.27
2017-12-24T11:13:40.242Z,19.77
2017-12-24T11:16:08.280Z,21.50
2017-12-24T11:18:36.290Z,24.20
2017-12-24T11:21:04.315Z,24.90
2017-12-24T11:23:32.319Z,25.60
2017-12-24T11:26:00.304Z,24.17
2017-12-24T11:28:28.299Z,23.63
2017-12-24T11:30:57.044Z,23.70
2017-12-24T11:33:25.022Z,25.80
2017-12-24T11:35:53.003Z,26.77
2017-12-24T11:38:20.991Z,20.77
2017-12-24T11:40:49.853Z,22.33
2017-12-24T11:43:17.886Z,22.90
2017-12-24T11:45:45.886Z,22.00
2017-12-24T11:48:13.866Z,24.00
2017-12-24T11:50:41.866Z,23.57
2017-12-24T11:53:10.615Z,21.63
2017-12-24T11:55:38.581Z,23.10
2017-12-24T11:58:06.599Z,28.10
2017-12-24T12:00:35.339Z,22.77
2017-12-24T12:03:03.330Z,24.77
2017-12-24T12:05:31.303Z,23.70
2017-12-24T12:07:59.335Z,22.10
2017-12-24T12:10:27.338Z,24.30
2017-12-24T12:12:55.340Z,24.30
2017-12-24T12:15:23.334Z,25.03
2017-12-24T12:17:51.351Z,24.67
2017-12-24T12:20:19.342Z,30.10
2017-12-24T12:22:48.094Z,25.73
2017-12-24T12:25:16.090Z,24.63
2017-12-24T12:27:44.881Z,26.13
2017-12-24T12:30:13.638Z,26.00
2017-12-24T12:32:41.640Z,22.77
2017-12-24T12:35:10.406Z,27.10
2017-12-24T12:37:38.418Z,24.30
2017-12-24T12:40:06.418Z,26.20
2017-12-24T12:42:34.438Z,24.70
2017-12-24T12:45:03.175Z,24.80
2017-12-24T12:47:31.198Z,27.33
2017-12-24T12:50:00.007Z,25.90
2017-12-24T12:52:28.005Z,25.33
2017-12-24T12:54:56.002Z,29.90
2017-12-24T12:57:24.008Z,24.80
2017-12-24T12:59:52.804Z,22.90
2017-12-24T13:02:20.774Z,24.93
2017-12-24T13:04:48.801Z,30.37
2017-12-24T13:07:16.790Z,27.27
2017-12-24T13:09:45.574Z,27.37
2017-12-24T13:12:14.395Z,24.07
2017-12-24T13:14:42.438Z,24.33
2017-12-24T13:17:11.186Z,27.30
2017-12-24T13:19:39.170Z,20.73
2017-12-24T13:22:07.147Z,23.73
2017-12-24T13:24:35.161Z,29.20
2017-12-24T13:27:03.194Z,22.37
2017-12-24T13:29:31.182Z,22.97
2017-12-24T13:31:59.916Z,24.13
2017-12-24T13:34:27.914Z,22.50
2017-12-24T13:36:55.876Z,26.00
2017-12-24T13:39:23.886Z,24.67
2017-12-24T13:41:52.705Z,26.60
2017-12-24T13:44:20.727Z,29.57
2017-12-24T13:46:48.766Z,21.47
2017-12-24T13:49:16.811Z,21.80
2017-12-24T13:51:44.800Z,24.40
2017-12-24T13:54:12.799Z,22.37
2017-12-24T13:56:40.783Z,25.53
2017-12-24T13:59:09.539Z,26.33
2017-12-24T14:01:37.582Z,25.83
2017-12-24T14:04:05.570Z,23.03
2017-12-24T14:06:33.552Z,25.03
2017-12-24T14:09:01.554Z,23.40
2017-12-24T14:11:30.323Z,23.60
2017-12-24T14:13:58.331Z,20.90
2017-12-24T14:16:26.316Z,23.70
2017-12-24T14:18:54.314Z,22.00
2017-12-24T14:21:22.290Z,24.70
2017-12-24T14:23:50.263Z,25.73
2017-12-24T14:26:18.278Z,24.67
2017-12-24T14:28:46.278Z,24.80
2017-12-24T14:31:14.271Z,24.10
2017-12-24T14:33:42.260Z,23.07
2017-12-24T14:36:10.272Z,24.10
2017-12-24T14:38:38.254Z,25.77
2017-12-24T14:41:06.269Z,23.83
2017-12-24T14:43:34.285Z,23.90
2017-12-24T14:46:02.282Z,23.20
2017-12-24T14:48:30.289Z,20.33
2017-12-24T14:50:59.043Z,22.57
2017-12-24T14:53:27.036Z,26.10
2017-12-24T14:55:55.050Z,24.40
2017-12-24T14:58:23.031Z,29.03
2017-12-24T15:00:51.004Z,25.70
2017-12-24T15:03:18.975Z,24.77
2017-12-24T15:05:46.980Z,28.80
2017-12-24T15:08:14.993Z,24.80
2017-12-24T15:10:43.029Z,26.40
2017-12-24T15:13:11.043Z,27.07
2017-12-24T15:15:39.035Z,26.90
2017-12-24T15:18:07.104Z,25.40
2017-12-24T15:20:35.105Z,28.23
2017-12-24T15:23:03.084Z,29.47
2017-12-24T15:25:31.850Z,29.53
2017-12-24T15:27:59.927Z,26.60
2017-12-24T15:30:27.958Z,25.53
2017-12-24T15:32:55.954Z,28.13
2017-12-24T15:35:23.968Z,29.63
2017-12-24T15:37:52.742Z,28.90
2017-12-24T15:40:20.782Z,32.83
2017-12-24T15:42:48.788Z,36.60
2017-12-24T15:45:17.541Z,27.57
2017-12-24T15:47:45.789Z,29.47
2017-12-24T15:50:13.787Z,38.27
2017-12-24T15:52:41.784Z,31.93
2017-12-24T15:55:09.786Z,27.83
2017-12-24T15:57:37.830Z,31.20
2017-12-24T16:00:06.629Z,31.13
2017-12-24T16:02:35.446Z,30.10
2017-12-24T16:05:03.455Z,30.17
2017-12-24T16:07:31.439Z,31.93
2017-12-24T16:09:59.466Z,35.37
2017-12-24T16:12:27.497Z,34.27
2017-12-24T16:14:56.268Z,29.77
2017-12-24T16:17:24.284Z,35.57
2017-12-24T16:19:52.279Z,35.50
2017-12-24T16:22:20.646Z,35.40
2017-12-24T16:24:49.140Z,36.73
2017-12-24T16:27:17.856Z,36.33
2017-12-24T16:29:46.654Z,37.10
2017-12-24T16:32:15.022Z,41.03
2017-12-24T16:34:43.812Z,38.10
2017-12-24T16:37:12.806Z,36.20
2017-12-24T16:39:41.287Z,39.37
2017-12-24T16:42:09.771Z,39.77
2017-12-24T16:44:37.777Z,38.37
2017-12-24T16:47:05.774Z,38.43
2017-12-24T16:49:33.838Z,42.50
2017-12-24T16:52:01.840Z,42.67
2017-12-24T16:54:29.830Z,39.57
2017-12-24T16:56:58.579Z,47.03
2017-12-24T16:59:26.583Z,42.17
2017-12-24T17:01:54.599Z,37.80
2017-12-24T17:04:22.612Z,35.70
2017-12-24T17:06:50.593Z,36.87
2017-12-24T17:09:19.388Z,45.13
2017-12-24T17:11:48.154Z,48.43
2017-12-24T17:14:16.132Z,42.60
2017-12-24T17:16:44.127Z,44.00
2017-12-24T17:19:12.939Z,50.10
2017-12-24T17:21:40.922Z,44.50
2017-12-24T17:24:08.916Z,46.70
2017-12-24T17:26:36.938Z,38.73
2017-12-24T17:29:04.943Z,39.73
2017-12-24T17:31:32.928Z,46.40
2017-12-24T17:34:01.839Z,43.97
2017-12-24T17:36:29.831Z,36.20
2017-12-24T17:38:57.822Z,38.13
2017-12-24T17:41:25.837Z,36.77
2017-12-24T17:43:53.814Z,37.37
2017-12-24T17:46:21.811Z,42.73
2017-12-24T17:48:49.826Z,36.93
2017-12-24T17:51:17.823Z,41.70
2017-12-24T17:53:45.859Z,43.67
2017-12-24T17:56:13.839Z,48.60
2017-12-24T17:58:41.822Z,42.17
2017-12-24T18:01:09.837Z,40.77
2017-12-24T18:03:37.851Z,33.60
2017-12-24T18:06:05.844Z,39.97
2017-12-24T18:08:33.847Z,37.50
2017-12-24T18:11:01.897Z,37.90
2017-12-24T18:13:30.638Z,37.93
2017-12-24T18:15:58.666Z,38.50
2017-12-24T18:18:26.693Z,41.17
2017-12-24T18:20:54.658Z,42.27
2017-12-24T18:23:22.652Z,36.23
2017-12-24T18:25:50.671Z,41.73
2017-12-24T18:28:18.668Z,34.40
2017-12-24T18:30:46.661Z,39.53
2017-12-24T18:33:14.668Z,36.70
2017-12-24T18:35:42.691Z,36.03
2017-12-24T18:38:10.691Z,35.47
2017-12-24T18:40:39.463Z,31.80
2017-12-24T18:43:07.496Z,36.90
2017-12-24T18:45:35.496Z,38.13
2017-12-24T18:48:03.547Z,44.72
2017-12-24T18:50:31.618Z,41.65
2017-12-24T18:52:59.624Z,43.97
2017-12-24T18:55:28.373Z,45.50
2017-12-24T18:57:56.354Z,46.27
2017-12-24T19:00:24.365Z,52.53
2017-12-24T19:02:52.376Z,41.47
2017-12-24T19:05:20.363Z,40.67
2017-12-24T19:07:48.379Z,48.45
2017-12-24T19:10:16.388Z,45.00
2017-12-24T19:12:44.415Z,43.63
2017-12-24T19:15:13.151Z,53.15
2017-12-24T19:17:41.168Z,46.90
2017-12-24T19:20:09.965Z,50.57
2017-12-24T19:22:38.729Z,53.87
2017-12-24T19:25:06.741Z,46.72
2017-12-24T19:27:34.789Z,46.37
2017-12-24T19:30:03.547Z,49.75
2017-12-24T19:32:31.557Z,41.88
2017-12-24T19:34:59.567Z,44.40
2017-12-24T19:37:27.583Z,45.75
2017-12-24T19:39:56.332Z,40.17
2017-12-24T19:42:24.324Z,44.58
2017-12-24T19:44:52.329Z,44.08
2017-12-24T19:47:20.302Z,50.12
2017-12-24T19:49:48.345Z,46.80
2017-12-24T19:52:17.129Z,37.45
2017-12-24T19:54:45.897Z,40.90
2017-12-24T19:57:13.911Z,43.50
2017-12-24T19:59:41.907Z,37.60
2017-12-24T20:02:09.913Z,41.55
2017-12-24T20:04:37.963Z,38.10
2017-12-24T20:07:05.946Z,38.05
2017-12-24T20:09:33.945Z,41.10
2017-12-24T20:12:02.722Z,38.75
2017-12-24T20:14:30.733Z,35.70
2017-12-24T20:16:58.741Z,30.88
2017-12-24T20:19:26.772Z,33.67
2017-12-24T20:21:54.907Z,31.98
2017-12-24T20:24:22.895Z,35.63
2017-12-24T20:26:51.653Z,31.37
2017-12-24T20:29:19.640Z,28.60
2017-12-24T20:31:48.408Z,33.08
2017-12-24T20:34:16.439Z,32.88
2017-12-24T20:36:44.450Z,34.10
2017-12-24T20:39:12.456Z,30.30
2017-12-24T20:41:41.237Z,28.87
2017-12-24T20:44:09.977Z,29.85
2017-12-24T20:46:37.942Z,36.15
2017-12-24T20:49:05.961Z,29.35
2017-12-24T20:51:34.718Z,30.67
2017-12-24T20:54:02.698Z,35.08
2017-12-24T20:56:30.696Z,32.60
2017-12-24T20:58:59.448Z,30.48
2017-12-24T21:01:27.429Z,29.05
2017-12-24T21:03:55.443Z,33.30
2017-12-24T21:06:23.479Z,27.75
2017-12-24T21:08:52.218Z,27.42
2017-12-24T21:11:20.218Z,25.40
2017-12-24T21:13:48.224Z,29.35
2017-12-24T21:16:16.995Z,30.12
2017-12-24T21:18:45.020Z,33.00
2017-12-24T21:21:13.025Z,27.60
2017-12-24T21:23:41.812Z,25.73
2017-12-24T21:26:09.822Z,27.75
2017-12-24T21:28:37.809Z,33.00
2017-12-24T21:31:05.793Z,30.37
2017-12-24T21:33:33.839Z,30.98
2017-12-24T21:36:01.832Z,31.62
2017-12-24T21:38:29.864Z,29.85
2017-12-24T21:40:58.641Z,27.50
2017-12-24T21:43:27.375Z,26.90
2017-12-24T21:45:55.339Z,29.58
2017-12-24T21:48:23.397Z,26.02
2017-12-24T21:50:51.394Z,26.05
2017-12-24T21:53:19.365Z,23.73
2017-12-24T21:55:47.344Z,25.95
2017-12-24T21:58:15.329Z,22.60
2017-12-24T22:00:43.322Z,27.42
2017-12-24T22:03:12.086Z,25.62
2017-12-24T22:05:40.077Z,24.23
2017-12-24T22:08:08.807Z,22.23
2017-12-24T22:10:36.807Z,24.25
2017-12-24T22:13:04.778Z,23.60
2017-12-24T22:15:32.811Z,23.70
2017-12-24T22:18:00.795Z,24.17
2017-12-24T22:20:28.867Z,26.55
2017-12-24T22:22:56.875Z,23.30
2017-12-24T22:25:24.877Z,29.90
2017-12-24T22:27:52.911Z,22.45
2017-12-24T22:30:20.924Z,24.42
2017-12-24T22:32:48.942Z,25.37
2017-12-24T22:35:16.923Z,25.33
2017-12-24T22:37:44.922Z,26.50
2017-12-24T22:40:12.923Z,24.10
2017-12-24T22:42:40.933Z,23.80
2017-12-24T22:45:08.907Z,29.90
2017-12-24T22:47:36.938Z,24.33
2017-12-24T22:50:04.930Z,22.10
2017-12-24T22:52:32.930Z,26.52
2017-12-24T22:55:01.667Z,21.25
2017-12-24T22:57:29.653Z,19.00
2017-12-24T22:59:57.644Z,23.95
2017-12-24T23:02:25.867Z,29.33
2017-12-24T23:04:53.876Z,32.88
2017-12-24T23:07:21.854Z,20.60
2017-12-24T23:09:49.866Z,22.92
2017-12-24T23:12:17.894Z,19.05
2017-12-24T23:14:45.894Z,21.23
2017-12-24T23:17:13.940Z,21.12
2017-12-24T23:19:41.911Z,18.48
2017-12-24T23:22:09.875Z,26.08
2017-12-24T23:24:37.923Z,20.73
2017-12-24T23:27:05.911Z,24.50
2017-12-24T23:29:33.907Z,23.25
2017-12-24T23:32:02.720Z,23.45
2017-12-24T23:34:30.730Z,18.60
2017-12-24T23:36:58.698Z,25.35
2017-12-24T23:39:26.684Z,20.85
2017-12-24T23:41:54.650Z,21.00
2017-12-24T23:44:22.627Z,24.95
2017-12-24T23:46:50.619Z,21.20
2017-12-24T23:49:19.386Z,19.45
2017-12-24T23:51:48.137Z,21.10
2017-12-24T23:54:16.130Z,22.15
2017-12-24T23:56:44.117Z,32.22
2017-12-24T23:59:12.886Z,24.52
